createdAt,value
2023-01-20T00:03:18.887Z,1.10
2023-01-20T00:08:20.393Z,0.53
2023-01-20T00:13:21.841Z,0.40
2023-01-20T00:18:23.358Z,0.90
2023-01-20T00:23:24.844Z,0.97
2023-01-20T00:28:26.309Z,0.60
2023-01-20T00:33:27.944Z,0.50
2023-01-20T00:38:29.372Z,0.57
2023-01-20T00:43:31.190Z,0.20
2023-01-20T00:48:33.213Z,0.40
2023-01-20T00:53:35.090Z,0.30
2023-01-20T00:58:36.506Z,0.30
2023-01-20T01:03:38.146Z,0.63
2023-01-20T01:08:39.839Z,0.20
2023-01-20T01:13:42.176Z,0.30
2023-01-20T01:18:43.783Z,0.30
2023-01-20T01:23:45.290Z,0.40
2023-01-20T01:28:50.359Z,0.30
2023-01-20T01:33:51.822Z,1.00
2023-01-20T01:38:59.166Z,0.80
2023-01-20T01:44:10.412Z,0.80
2023-01-20T01:49:11.836Z,0.80
2023-01-20T01:54:17.123Z,0.97
2023-01-20T01:59:19.758Z,1.00
2023-01-20T02:04:26.240Z,1.10
2023-01-20T02:09:30.027Z,1.20
2023-01-20T02:14:37.225Z,0.77
2023-01-20T02:20:09.453Z,1.20
2023-01-20T02:25:29.402Z,1.03
2023-01-20T02:31:26.232Z,0.80
2023-01-20T02:36:40.438Z,0.80
2023-01-20T02:41:58.453Z,0.80
2023-01-20T02:47:06.351Z,0.50
2023-01-20T02:52:15.295Z,0.30
2023-01-20T02:57:22.637Z,0.20
2023-01-20T03:02:27.509Z,0.37
2023-01-20T03:07:31.331Z,0.40
2023-01-20T03:12:57.433Z,0.20
2023-01-20T03:17:59.050Z,0.20
2023-01-20T03:23:00.529Z,0.30
2023-01-20T03:28:02.097Z,0.60
2023-01-20T03:33:03.928Z,0.90
2023-01-20T03:38:05.462Z,1.73
2023-01-20T03:43:16.732Z,0.77
2023-01-20T03:48:32.807Z,1.00
2023-01-20T03:54:07.230Z,0.83
2023-01-20T03:59:11.896Z,1.00
2023-01-20T04:09:26.332Z,1.15
2023-01-20T04:14:27.993Z,1.43
2023-01-20T04:19:29.459Z,1.30
2023-01-20T04:24:48.534Z,2.23
2023-01-20T04:29:49.965Z,2.40
2023-01-20T04:34:52.043Z,2.50
2023-01-20T04:39:53.710Z,2.40
2023-01-20T04:44:55.162Z,4.07
2023-01-20T04:49:56.658Z,3.27
2023-01-20T04:54:58.562Z,2.70
2023-01-20T05:00:00.032Z,1.90
2023-01-20T05:05:01.456Z,2.50
2023-01-20T05:10:03.041Z,2.50
2023-01-20T05:15:05.037Z,1.60
2023-01-20T05:20:06.818Z,1.30
2023-01-20T05:25:08.891Z,1.70
2023-01-20T05:30:10.851Z,1.90
2023-01-20T05:35:12.608Z,1.80
2023-01-20T05:40:14.571Z,2.27
2023-01-20T05:45:16.594Z,2.30
2023-01-20T05:50:18.563Z,2.10
2023-01-20T05:55:20.562Z,2.20
2023-01-20T06:00:22.463Z,1.90
2023-01-20T06:05:24.127Z,2.57
2023-01-20T06:10:28.020Z,3.50
2023-01-20T06:15:29.592Z,3.83
2023-01-20T06:20:31.155Z,4.50
2023-01-20T06:25:32.655Z,4.10
2023-01-20T06:30:34.254Z,4.53
2023-01-20T06:35:36.104Z,5.23
2023-01-20T06:40:37.528Z,4.93
2023-01-20T06:45:39.092Z,4.93
2023-01-20T06:50:40.568Z,5.00
2023-01-20T06:55:42.090Z,5.93
2023-01-20T07:00:43.606Z,6.53
2023-01-20T07:05:53.848Z,6.70
2023-01-20T07:10:56.355Z,7.90
2023-01-20T07:15:57.893Z,8.10
2023-01-20T07:21:00.220Z,9.17
2023-01-20T07:26:04.787Z,9.77
2023-01-20T07:31:14.019Z,11.35
2023-01-20T07:36:16.676Z,11.17
2023-01-20T07:41:19.901Z,11.33
2023-01-20T07:46:21.844Z,12.57
2023-01-20T07:51:23.450Z,13.07
2023-01-20T07:56:27.619Z,12.70
2023-01-20T08:01:31.320Z,14.50
2023-01-20T08:06:32.875Z,15.17
2023-01-20T08:11:34.321Z,16.20
2023-01-20T08:16:35.790Z,19.13
2023-01-20T08:21:37.554Z,21.13
2023-01-20T08:26:38.980Z,18.83
2023-01-20T08:31:41.322Z,18.13
2023-01-20T08:36:42.941Z,17.80
2023-01-20T08:41:46.163Z,21.40
2023-01-20T08:46:47.793Z,22.77
2023-01-20T08:51:49.599Z,23.53
2023-01-20T08:56:53.774Z,23.70
2023-01-20T09:01:55.218Z,23.13
2023-01-20T09:06:56.637Z,25.33
2023-01-20T09:11:58.085Z,25.70
2023-01-20T09:17:01.290Z,27.63
2023-01-20T09:22:03.423Z,27.87
2023-01-20T09:27:04.920Z,29.13
2023-01-20T09:32:06.569Z,28.73
2023-01-20T09:37:26.912Z,25.97
2023-01-20T09:43:24.100Z,26.00
2023-01-20T09:49:02.740Z,25.40
2023-01-20T09:54:14.501Z,26.80
2023-01-20T09:59:26.774Z,23.47
2023-01-20T10:04:37.270Z,24.00
2023-01-20T10:09:45.870Z,22.40
2023-01-20T10:14:55.230Z,23.10
2023-01-20T10:20:12.804Z,20.67
2023-01-20T10:25:25.638Z,21.23
2023-01-20T10:30:35.924Z,20.50
2023-01-20T10:35:42.154Z,19.63
2023-01-20T10:40:49.454Z,21.03
2023-01-20T10:46:02.680Z,19.53
2023-01-20T10:51:17.111Z,19.58
2023-01-20T10:56:24.729Z,18.67
2023-01-20T11:01:26.515Z,17.27
2023-01-20T11:06:28.442Z,19.33
2023-01-20T11:11:31.596Z,19.27
2023-01-20T11:16:33.635Z,17.97
2023-01-20T11:21:36.987Z,17.87
2023-01-20T11:26:38.525Z,18.47
2023-01-20T11:31:54.403Z,17.17
2023-01-20T11:37:05.037Z,17.77
2023-01-20T11:42:18.063Z,19.47
2023-01-20T11:47:25.543Z,18.97
2023-01-20T11:52:27.050Z,18.67
2023-01-20T11:57:28.689Z,18.57
2023-01-20T12:02:30.133Z,19.43
2023-01-20T12:07:37.365Z,17.53
2023-01-20T12:12:59.797Z,19.27
2023-01-20T12:18:31.041Z,19.03
2023-01-20T12:23:48.220Z,18.50
2023-01-20T12:28:52.707Z,20.30
2023-01-20T12:34:04.860Z,19.63
2023-01-20T12:39:08.149Z,19.57
2023-01-20T12:44:23.254Z,19.70
2023-01-20T12:49:48.225Z,19.43
2023-01-20T12:55:11.959Z,19.77
2023-01-20T13:00:23.171Z,21.08
2023-01-20T13:05:27.421Z,21.70
2023-01-20T13:10:53.665Z,20.20
2023-01-20T13:16:05.983Z,18.97
2023-01-20T13:21:21.021Z,19.60
2023-01-20T13:26:22.566Z,19.37
2023-01-20T13:31:44.896Z,18.60
2023-01-20T13:37:07.125Z,18.37
2023-01-20T13:42:28.952Z,18.57
2023-01-20T13:47:53.072Z,18.77
2023-01-20T13:52:57.261Z,18.65
2023-01-20T13:57:58.684Z,19.02
2023-01-20T14:03:21.717Z,17.97
2023-01-20T14:08:25.266Z,18.60
2023-01-20T14:13:26.743Z,19.83
2023-01-20T14:18:28.594Z,18.97
2023-01-20T14:23:31.868Z,20.23
2023-01-20T14:28:35.330Z,20.07
2023-01-20T14:33:44.521Z,19.37
2023-01-20T14:38:57.252Z,20.27
2023-01-20T14:44:00.220Z,21.10
2023-01-20T14:49:03.667Z,20.17
2023-01-20T14:54:27.915Z,20.53
2023-01-20T15:04:37.904Z,18.50
2023-01-20T15:09:42.250Z,18.90
2023-01-20T15:15:00.344Z,19.77
2023-01-20T15:20:01.988Z,20.13
2023-01-20T15:25:12.699Z,21.23
2023-01-20T15:30:20.714Z,20.10
2023-01-20T15:35:26.036Z,23.00
2023-01-20T15:40:28.420Z,21.70
2023-01-20T15:45:29.813Z,22.73
2023-01-20T15:50:32.840Z,21.03
2023-01-20T15:55:34.541Z,21.73
2023-01-20T16:00:37.838Z,22.17
2023-01-20T16:05:39.362Z,20.13
2023-01-20T16:10:40.843Z,21.90
2023-01-20T16:15:43.312Z,22.40
2023-01-20T16:20:46.771Z,20.53
2023-01-20T16:25:48.398Z,20.43
2023-01-20T16:30:55.005Z,22.00
2023-01-20T16:35:56.823Z,22.40
2023-01-20T16:41:05.366Z,24.00
2023-01-20T16:46:11.903Z,27.30
2023-01-20T16:51:19.124Z,35.60
2023-01-20T16:56:29.966Z,30.07
2023-01-20T17:01:32.013Z,27.07
2023-01-20T17:06:34.650Z,24.63
2023-01-20T17:11:37.597Z,23.40
2023-01-20T17:16:39.654Z,22.97
2023-01-20T17:21:41.345Z,22.73
2023-01-20T17:26:43.009Z,23.17
2023-01-20T17:31:44.534Z,24.90
2023-01-20T17:36:48.258Z,27.57
2023-01-20T17:41:49.758Z,28.77
2023-01-20T17:46:51.342Z,30.83
2023-01-20T17:51:52.818Z,40.23
2023-01-20T17:56:54.292Z,33.70
2023-01-20T18:01:56.788Z,35.17
2023-01-20T18:06:59.617Z,33.70
2023-01-20T18:12:01.566Z,56.43
2023-01-20T18:17:03.209Z,74.90
2023-01-20T18:22:07.866Z,62.10
2023-01-20T18:32:10.938Z,35.13
2023-01-20T18:37:12.490Z,31.93
2023-01-20T18:42:14.003Z,30.97
2023-01-20T18:47:16.604Z,28.73
2023-01-20T18:52:18.879Z,26.83
2023-01-20T18:57:20.326Z,24.37
2023-01-20T19:02:21.805Z,28.63
2023-01-20T19:07:23.318Z,27.23
2023-01-20T19:12:24.779Z,25.77
2023-01-20T19:17:26.667Z,27.97
2023-01-20T19:22:29.257Z,26.00
2023-01-20T19:27:31.568Z,26.87
2023-01-20T19:32:33.032Z,28.03
2023-01-20T19:37:34.570Z,27.13
2023-01-20T19:42:36.099Z,28.30
2023-01-20T19:47:37.586Z,29.43
2023-01-20T19:52:39.077Z,31.60
2023-01-20T19:57:40.522Z,31.30
2023-01-20T20:02:42.078Z,30.90
2023-01-20T20:07:43.580Z,31.50
2023-01-20T20:12:45.070Z,29.07
2023-01-20T20:17:46.501Z,26.57
2023-01-20T20:22:47.915Z,24.97
2023-01-20T20:27:49.382Z,25.00
2023-01-20T20:32:51.316Z,24.97
2023-01-20T20:37:52.744Z,24.10
2023-01-20T20:42:56.288Z,25.70
2023-01-20T20:47:57.764Z,22.87
2023-01-20T20:52:59.302Z,25.67
2023-01-20T20:58:00.780Z,25.40
2023-01-20T21:03:02.403Z,24.67
2023-01-20T21:08:05.920Z,22.73
2023-01-20T21:13:08.224Z,23.50
2023-01-20T21:18:09.757Z,21.43
2023-01-20T21:23:11.213Z,19.40
2023-01-20T21:28:12.646Z,21.70
2023-01-20T21:33:17.515Z,23.97
2023-01-20T21:38:19.068Z,22.80
2023-01-20T21:43:39.302Z,24.77
2023-01-20T21:48:59.405Z,23.27
2023-01-20T21:54:00.809Z,22.50
2023-01-20T21:59:02.326Z,24.13
2023-01-20T22:04:03.969Z,21.87
2023-01-20T22:09:05.547Z,20.73
2023-01-20T22:14:07.240Z,24.33
2023-01-20T22:19:11.374Z,22.53
2023-01-20T22:24:12.845Z,22.17
2023-01-20T22:32:24.399Z,20.87
2023-01-20T22:37:25.936Z,20.97
2023-01-20T22:42:27.782Z,19.40
2023-01-20T22:47:29.323Z,20.13
2023-01-20T22:52:30.966Z,16.60
2023-01-20T22:57:32.493Z,19.90
2023-01-20T23:02:34.598Z,21.70
2023-01-20T23:07:38.474Z,20.80
2023-01-20T23:12:39.929Z,20.47
2023-01-20T23:17:41.373Z,22.13
2023-01-20T23:22:42.863Z,22.93
2023-01-20T23:27:44.351Z,22.97
2023-01-20T23:32:46.059Z,24.10
2023-01-20T23:37:47.478Z,25.60
2023-01-20T23:42:48.921Z,21.30
2023-01-20T23:47:50.337Z,25.93
2023-01-20T23:52:52.015Z,22.57
2023-01-20T23:57:53.451Z,24.20
